createdAt,value
2019-03-06T00:00:00.482Z,3.52
2019-03-06T00:01:09.936Z,3.56
2019-03-06T00:02:19.655Z,3.66
2019-03-06T00:03:29.403Z,3.56
2019-03-06T00:04:39.396Z,3.58
2019-03-06T00:05:49.376Z,3.55
2019-03-06T00:06:59.102Z,3.56
2019-03-06T00:08:09.079Z,3.5
2019-03-06T00:09:19.045Z,3.59
2019-03-06T00:10:29.011Z,3.59
2019-03-06T00:11:38.472Z,3.52
2019-03-06T00:12:48.432Z,3.49
2019-03-06T00:13:58.187Z,3.53
2019-03-06T00:15:07.650Z,3.61
2019-03-06T00:16:17.599Z,3.53
2019-03-06T00:17:27.557Z,3.56
2019-03-06T00:18:37.283Z,3.56
2019-03-06T00:19:47.243Z,3.56
2019-03-06T00:20:56.984Z,3.55
2019-03-06T00:22:06.717Z,3.58
2019-03-06T00:23:16.690Z,3.5
2019-03-06T00:24:26.396Z,3.49
2019-03-06T00:25:36.108Z,3.53
2019-03-06T00:26:46.079Z,3.52
2019-03-06T00:27:56.278Z,3.52
2019-03-06T00:29:06.442Z,3.49
2019-03-06T00:30:17.359Z,3.56
2019-03-06T00:31:27.533Z,3.61
2019-03-06T00:32:37.697Z,3.59
2019-03-06T00:33:47.659Z,3.59
2019-03-06T00:34:57.378Z,3.66
2019-03-06T00:36:07.357Z,3.59
2019-03-06T00:37:17.320Z,3.58
2019-03-06T00:38:27.295Z,3.52
2019-03-06T00:39:37.251Z,3.49
2019-03-06T00:40:47.207Z,3.55
2019-03-06T00:41:56.923Z,3.5
2019-03-06T00:43:06.641Z,3.52
2019-03-06T00:44:16.598Z,3.48
2019-03-06T00:45:26.558Z,3.48
2019-03-06T00:46:36.528Z,3.53
2019-03-06T00:47:46.476Z,3.58
2019-03-06T00:48:56.191Z,3.58
2019-03-06T00:50:06.167Z,3.52
2019-03-06T00:51:15.884Z,3.49
2019-03-06T00:52:25.853Z,3.64
2019-03-06T00:53:35.308Z,3.55
2019-03-06T00:54:44.749Z,3.56
2019-03-06T00:55:54.722Z,3.58
2019-03-06T00:57:04.420Z,3.55
2019-03-06T00:58:14.133Z,3.59
2019-03-06T00:59:23.693Z,3.63
2019-03-06T01:00:33.713Z,3.49
2019-03-06T01:01:43.183Z,3.55
2019-03-06T01:02:53.421Z,3.55
2019-03-06T01:04:03.945Z,3.59
2019-03-06T01:05:14.723Z,3.59
2019-03-06T01:06:25.141Z,3.59
2019-03-06T01:07:34.993Z,3.56
2019-03-06T01:08:44.917Z,3.46
2019-03-06T01:09:54.878Z,3.49
2019-03-06T01:11:04.832Z,3.41
2019-03-06T01:12:14.537Z,3.45
2019-03-06T01:13:24.511Z,3.34
2019-03-06T01:14:34.469Z,3.24
2019-03-06T01:15:44.195Z,3.24
2019-03-06T01:16:54.154Z,3.26
2019-03-06T01:18:03.863Z,3.18
2019-03-06T01:19:13.819Z,3.19
2019-03-06T01:20:23.792Z,3.13
2019-03-06T01:21:33.500Z,3.11
2019-03-06T01:22:43.221Z,3.18
2019-03-06T01:23:53.185Z,3.12
2019-03-06T01:25:03.153Z,3.15
2019-03-06T01:26:13.125Z,3.12
2019-03-06T01:27:23.081Z,3.08
2019-03-06T01:28:32.780Z,3
2019-03-06T01:29:42.498Z,3.06
2019-03-06T01:30:52.462Z,3.05
2019-03-06T01:32:02.426Z,3.06
2019-03-06T01:33:12.385Z,3.03
2019-03-06T01:34:21.897Z,2.98
2019-03-06T01:35:31.850Z,2.95
2019-03-06T01:36:42.114Z,3.03
2019-03-06T01:37:52.391Z,2.95
2019-03-06T01:39:02.702Z,2.97
2019-03-06T01:40:13.124Z,2.93
2019-03-06T01:41:23.175Z,2.9
2019-03-06T01:42:32.631Z,2.95
2019-03-06T01:43:42.614Z,2.94
2019-03-06T01:44:52.589Z,2.94
2019-03-06T01:46:02.537Z,2.85
2019-03-06T01:47:12.289Z,2.83
2019-03-06T01:48:21.997Z,2.85
2019-03-06T01:49:31.700Z,2.88
2019-03-06T01:50:41.672Z,2.87
2019-03-06T01:51:51.406Z,2.87
2019-03-06T01:53:01.369Z,2.82
2019-03-06T01:54:11.087Z,2.88
2019-03-06T01:55:20.794Z,2.97
2019-03-06T01:56:30.754Z,2.97
2019-03-06T01:57:40.199Z,2.95
2019-03-06T01:58:49.926Z,2.98
2019-03-06T01:59:59.631Z,3
2019-03-06T02:01:09.334Z,2.9
2019-03-06T02:02:19.319Z,2.98
2019-03-06T02:03:29.275Z,3.01
2019-03-06T02:04:38.994Z,3.03
2019-03-06T02:05:48.955Z,3.01
2019-03-06T02:06:58.926Z,3.01
2019-03-06T02:08:08.910Z,3.03
2019-03-06T02:09:18.871Z,3.05
2019-03-06T02:10:28.587Z,3.08
2019-03-06T02:11:38.881Z,3
2019-03-06T02:12:49.316Z,2.97
2019-03-06T02:13:59.778Z,3.01
2019-03-06T02:15:10.307Z,3.05
2019-03-06T02:16:20.017Z,3.03
2019-03-06T02:17:29.707Z,2.94
2019-03-06T02:18:39.424Z,2.97
2019-03-06T02:19:49.402Z,2.91
2019-03-06T02:20:59.109Z,2.94
2019-03-06T02:22:09.058Z,2.93
2019-03-06T02:23:19.006Z,2.9
2019-03-06T02:24:28.715Z,2.83
2019-03-06T02:25:38.425Z,2.82
2019-03-06T02:26:48.363Z,2.72
2019-03-06T02:27:58.328Z,2.72
2019-03-06T02:29:08.288Z,2.75
2019-03-06T02:30:18.271Z,2.77
2019-03-06T02:31:28.244Z,2.77
2019-03-06T02:32:37.978Z,2.79
2019-03-06T02:33:47.693Z,2.7
2019-03-06T02:34:57.660Z,2.7
2019-03-06T02:36:07.240Z,2.65
2019-03-06T02:37:17.226Z,2.69
2019-03-06T02:38:27.220Z,2.76
2019-03-06T02:39:37.208Z,2.72
2019-03-06T02:40:46.981Z,2.79
2019-03-06T02:41:56.706Z,2.76
2019-03-06T02:43:06.697Z,2.7
2019-03-06T02:44:16.673Z,2.77
2019-03-06T02:45:26.399Z,2.75
2019-03-06T02:46:35.890Z,2.76
2019-03-06T02:47:45.848Z,2.72
2019-03-06T02:48:55.910Z,2.79
2019-03-06T02:50:05.978Z,2.79
2019-03-06T02:51:15.724Z,2.79
2019-03-06T02:52:25.886Z,2.88
2019-03-06T02:53:36.409Z,2.83
2019-03-06T02:54:46.996Z,2.73
2019-03-06T02:55:57.003Z,2.73
2019-03-06T02:57:07.159Z,2.8
2019-03-06T02:58:17.184Z,2.8
2019-03-06T02:59:27.169Z,2.77
2019-03-06T03:00:37.163Z,2.79
2019-03-06T03:01:47.169Z,2.8
2019-03-06T03:02:57.162Z,2.77
2019-03-06T03:04:07.141Z,2.82
2019-03-06T03:05:16.652Z,2.68
2019-03-06T03:06:26.642Z,2.7
2019-03-06T03:07:36.350Z,2.72
2019-03-06T03:08:46.320Z,2.68
2019-03-06T03:09:55.795Z,2.68
2019-03-06T03:11:05.870Z,2.68
2019-03-06T03:12:15.929Z,2.65
2019-03-06T03:13:25.909Z,2.68
2019-03-06T03:14:35.632Z,2.64
2019-03-06T03:15:45.624Z,2.72
2019-03-06T03:16:55.674Z,2.59
2019-03-06T03:18:05.656Z,2.58
2019-03-06T03:19:15.620Z,2.52
2019-03-06T03:20:25.603Z,2.59
2019-03-06T03:21:35.326Z,2.5
2019-03-06T03:22:45.344Z,2.54
2019-03-06T03:23:55.121Z,2.44
2019-03-06T03:25:05.195Z,2.43
2019-03-06T03:26:15.248Z,2.4
2019-03-06T03:27:25.204Z,2.39
2019-03-06T03:28:35.430Z,2.39
2019-03-06T03:29:45.947Z,2.32
2019-03-06T03:30:56.588Z,2.37
2019-03-06T03:32:07.266Z,2.3
2019-03-06T03:33:17.728Z,2.39
2019-03-06T03:34:27.667Z,2.3
2019-03-06T03:35:37.707Z,2.36
2019-03-06T03:36:47.705Z,2.34
2019-03-06T03:37:57.453Z,2.32
2019-03-06T03:39:07.168Z,2.34
2019-03-06T03:40:17.157Z,2.32
2019-03-06T03:41:27.141Z,2.33
2019-03-06T03:42:36.859Z,2.3
2019-03-06T03:43:46.568Z,2.32
2019-03-06T03:44:56.283Z,2.22
2019-03-06T03:46:06.286Z,2.26
2019-03-06T03:47:16.251Z,2.14
2019-03-06T03:48:26.221Z,2.18
2019-03-06T03:49:35.928Z,2.07
2019-03-06T03:50:45.678Z,2.01
2019-03-06T03:51:55.666Z,1.98
2019-03-06T03:53:05.638Z,2.04
2019-03-06T03:54:15.628Z,2.07
2019-03-06T03:55:25.625Z,2.01
2019-03-06T03:56:35.386Z,2.05
2019-03-06T03:57:45.107Z,2.08
2019-03-06T03:58:55.101Z,2.03
2019-03-06T04:00:04.831Z,1.89
2019-03-06T04:01:14.548Z,1.95
2019-03-06T04:02:24.276Z,2.01
2019-03-06T04:03:33.998Z,1.97
2019-03-06T04:04:43.721Z,1.97
2019-03-06T04:05:53.715Z,1.89
2019-03-06T04:07:03.692Z,1.93
2019-03-06T04:08:13.692Z,1.92
2019-03-06T04:09:23.484Z,1.88
2019-03-06T04:10:33.742Z,1.97
2019-03-06T04:11:44.086Z,1.86
2019-03-06T04:12:54.724Z,1.89
2019-03-06T04:14:05.090Z,1.92
2019-03-06T04:15:15.250Z,1.82
2019-03-06T04:16:25.246Z,1.81
2019-03-06T04:17:34.981Z,1.79
2019-03-06T04:18:44.736Z,1.84
2019-03-06T04:19:54.699Z,1.84
2019-03-06T04:21:04.418Z,1.82
2019-03-06T04:22:14.396Z,1.85
2019-03-06T04:23:23.889Z,1.92
2019-03-06T04:24:33.876Z,1.82
2019-03-06T04:25:43.854Z,1.92
2019-03-06T04:26:53.851Z,1.85
2019-03-06T04:28:03.839Z,1.82
2019-03-06T04:29:13.813Z,1.85
2019-03-06T04:30:23.282Z,1.85
2019-03-06T04:31:33.275Z,1.74
2019-03-06T04:32:43.239Z,1.68
2019-03-06T04:33:53.246Z,1.71
2019-03-06T04:35:03.248Z,1.66
2019-03-06T04:36:13.304Z,1.68
2019-03-06T04:37:23.287Z,1.74
2019-03-06T04:38:33.239Z,1.63
2019-03-06T04:39:43.192Z,1.66
2019-03-06T04:40:52.660Z,1.66
2019-03-06T04:42:02.623Z,1.7
2019-03-06T04:43:12.585Z,1.63
2019-03-06T04:44:22.287Z,1.64
2019-03-06T04:45:31.750Z,1.58
2019-03-06T04:46:41.717Z,1.6
2019-03-06T04:47:51.182Z,1.68
2019-03-06T04:49:01.147Z,1.52
2019-03-06T04:50:11.519Z,1.5
2019-03-06T04:51:22.449Z,1.61
2019-03-06T04:52:33.147Z,1.57
2019-03-06T04:53:43.309Z,1.6
2019-03-06T04:54:53.250Z,1.63
2019-03-06T04:56:02.719Z,1.56
2019-03-06T04:57:12.177Z,1.63
2019-03-06T04:58:21.875Z,1.56
2019-03-06T04:59:33.635Z,1.64
2019-03-06T05:00:43.365Z,1.67
2019-03-06T05:01:53.339Z,1.63
2019-03-06T05:03:03.303Z,1.61
2019-03-06T05:04:13.253Z,1.5
2019-03-06T05:05:23.206Z,1.56
2019-03-06T05:06:32.936Z,1.6
2019-03-06T05:07:42.893Z,1.64
2019-03-06T05:08:52.358Z,1.63
2019-03-06T05:10:02.081Z,1.63
2019-03-06T05:11:11.784Z,1.6
2019-03-06T05:12:21.496Z,1.61
2019-03-06T05:13:31.210Z,1.6
2019-03-06T05:14:40.927Z,1.67
2019-03-06T05:15:50.885Z,1.64
2019-03-06T05:17:00.597Z,1.63
2019-03-06T05:18:10.068Z,1.63
2019-03-06T05:19:19.769Z,1.66
2019-03-06T05:20:29.455Z,1.64
2019-03-06T05:21:39.165Z,1.67
2019-03-06T05:22:49.158Z,1.61
2019-03-06T05:23:59.120Z,1.58
2019-03-06T05:25:09.077Z,1.61
2019-03-06T05:26:19.194Z,1.61
2019-03-06T05:27:29.088Z,1.61
2019-03-06T05:28:39.525Z,1.61
2019-03-06T05:29:50.184Z,1.66
2019-03-06T05:31:00.771Z,1.56
2019-03-06T05:32:10.829Z,1.57
2019-03-06T05:33:20.534Z,1.53
2019-03-06T05:34:30.516Z,1.56
2019-03-06T05:35:40.233Z,1.48
2019-03-06T05:36:50.204Z,1.53
2019-03-06T05:38:00.176Z,1.52
2019-03-06T05:39:10.115Z,1.58
2019-03-06T05:40:19.588Z,1.5
2019-03-06T05:41:29.297Z,1.58
2019-03-06T05:42:38.998Z,1.52
2019-03-06T05:43:48.954Z,1.48
2019-03-06T05:44:58.927Z,1.48
2019-03-06T05:46:08.889Z,1.52
2019-03-06T05:47:18.577Z,1.5
2019-03-06T05:48:28.311Z,1.46
2019-03-06T05:49:37.775Z,1.49
2019-03-06T05:50:47.233Z,1.43
2019-03-06T05:51:57.212Z,1.49
2019-03-06T05:53:06.933Z,1.5
2019-03-06T05:54:16.663Z,1.52
2019-03-06T05:55:26.626Z,1.53
2019-03-06T05:56:36.595Z,1.52
2019-03-06T05:57:46.557Z,1.58
2019-03-06T05:58:56.265Z,1.57
2019-03-06T06:00:06.235Z,1.58
2019-03-06T06:01:16.513Z,1.46
2019-03-06T06:02:27.973Z,1.46
2019-03-06T06:03:38.577Z,1.48
2019-03-06T06:04:48.237Z,1.52
2019-03-06T06:05:58.200Z,1.58
2019-03-06T06:07:08.145Z,1.58
2019-03-06T06:08:18.108Z,1.48
2019-03-06T06:09:27.815Z,1.49
2019-03-06T06:10:37.777Z,1.46
2019-03-06T06:11:47.538Z,1.57
2019-03-06T06:12:57.497Z,1.57
2019-03-06T06:14:07.201Z,1.56
2019-03-06T06:15:17.147Z,1.6
2019-03-06T06:16:27.111Z,1.61
2019-03-06T06:17:37.076Z,1.6
2019-03-06T06:18:47.021Z,1.71
2019-03-06T06:19:56.984Z,1.66
2019-03-06T06:21:06.954Z,1.61
2019-03-06T06:22:16.666Z,1.6
2019-03-06T06:23:26.373Z,1.76
2019-03-06T06:24:35.834Z,1.68
2019-03-06T06:25:45.792Z,1.78
2019-03-06T06:26:55.761Z,1.78
2019-03-06T06:28:05.482Z,1.71
2019-03-06T06:29:15.206Z,1.79
2019-03-06T06:30:26.703Z,1.79
2019-03-06T06:31:36.653Z,1.81
2019-03-06T06:32:46.632Z,1.74
2019-03-06T06:33:56.627Z,1.79
2019-03-06T06:35:06.557Z,1.75
2019-03-06T06:36:17.045Z,1.78
2019-03-06T06:37:27.441Z,1.68
2019-03-06T06:38:39.967Z,1.66
2019-03-06T06:39:49.955Z,1.79
2019-03-06T06:40:59.935Z,1.78
2019-03-06T06:42:09.663Z,1.67
2019-03-06T06:43:19.457Z,1.79
2019-03-06T06:44:29.180Z,1.75
2019-03-06T06:45:38.901Z,1.81
2019-03-06T06:46:48.882Z,1.81
2019-03-06T06:47:58.588Z,1.84
2019-03-06T06:49:08.586Z,1.75
2019-03-06T06:50:18.553Z,1.88
2019-03-06T06:51:28.557Z,1.93
2019-03-06T06:52:38.521Z,1.98
2019-03-06T06:53:48.511Z,1.89
2019-03-06T06:54:58.243Z,2.04
2019-03-06T06:56:07.965Z,1.97
2019-03-06T06:57:17.934Z,2.04
2019-03-06T06:58:36.147Z,2.03
2019-03-06T06:59:46.100Z,2.14
2019-03-06T07:00:55.820Z,2.12
2019-03-06T07:02:05.840Z,2.21
2019-03-06T07:03:16.107Z,2.32
2019-03-06T07:04:27.835Z,2.28
2019-03-06T07:05:38.213Z,2.26
2019-03-06T07:06:48.051Z,2.26
2019-03-06T07:07:58.021Z,2.36
2019-03-06T07:09:07.223Z,2.39
2019-03-06T07:10:16.939Z,2.36
2019-03-06T07:11:26.909Z,2.4
2019-03-06T07:12:36.923Z,2.43
2019-03-06T07:13:46.886Z,2.44
2019-03-06T07:14:56.643Z,2.5
2019-03-06T07:16:06.386Z,2.47
2019-03-06T07:17:15.839Z,2.51
2019-03-06T07:18:25.541Z,2.55
2019-03-06T07:19:35.516Z,2.59
2019-03-06T07:20:45.297Z,2.5
2019-03-06T07:21:54.771Z,2.51
2019-03-06T07:23:04.488Z,2.44
2019-03-06T07:24:14.441Z,2.47
2019-03-06T07:25:24.415Z,2.52
2019-03-06T07:26:34.388Z,2.57
2019-03-06T07:27:43.370Z,2.59
2019-03-06T07:28:53.097Z,2.54
2019-03-06T07:30:03.077Z,2.59
2019-03-06T07:31:13.045Z,2.55
2019-03-06T07:32:22.789Z,2.68
2019-03-06T07:33:32.759Z,2.68
2019-03-06T07:34:42.754Z,2.65
2019-03-06T07:35:52.766Z,2.79
2019-03-06T07:37:03.335Z,2.73
2019-03-06T07:38:13.959Z,2.72
2019-03-06T07:39:24.032Z,2.82
2019-03-06T07:40:34.027Z,2.91
2019-03-06T07:41:44.029Z,2.98
2019-03-06T07:42:53.519Z,2.95
2019-03-06T07:44:03.509Z,2.94
2019-03-06T07:45:13.239Z,3.11
2019-03-06T07:46:22.968Z,3.09
2019-03-06T07:47:32.959Z,3.03
2019-03-06T07:48:42.725Z,3.18
2019-03-06T07:49:52.464Z,3.26
2019-03-06T07:51:02.449Z,3.16
2019-03-06T07:52:12.410Z,3.34
2019-03-06T07:53:22.141Z,3.46
2019-03-06T07:54:32.178Z,3.5
2019-03-06T07:55:42.173Z,3.58
2019-03-06T07:56:52.137Z,3.68
2019-03-06T07:58:01.628Z,3.71
2019-03-06T07:59:11.380Z,3.7
2019-03-06T08:00:21.391Z,3.73
2019-03-06T08:01:31.430Z,3.92
2019-03-06T08:02:41.168Z,3.86
2019-03-06T08:03:51.183Z,3.86
2019-03-06T08:05:01.365Z,3.88
2019-03-06T08:06:11.827Z,3.82
2019-03-06T08:07:22.455Z,3.84
2019-03-06T08:08:33.065Z,3.88
2019-03-06T08:09:43.187Z,3.88
2019-03-06T08:10:53.198Z,3.94
2019-03-06T08:12:03.173Z,3.96
2019-03-06T08:13:13.237Z,3.96
2019-03-06T08:14:27.185Z,4.06
2019-03-06T08:15:37.142Z,4.03
2019-03-06T08:16:47.116Z,4.03
2019-03-06T08:17:57.092Z,4.02
2019-03-06T08:19:07.067Z,4.07
2019-03-06T08:20:17.167Z,4.27
2019-03-06T08:21:26.892Z,4.27
2019-03-06T08:22:36.892Z,4.25
2019-03-06T08:23:46.615Z,4.36
2019-03-06T08:24:56.600Z,4.32
2019-03-06T08:26:06.570Z,4.36
2019-03-06T08:27:16.364Z,4.39
2019-03-06T08:28:26.336Z,4.4
2019-03-06T08:29:36.511Z,4.48
2019-03-06T08:30:48.182Z,4.49
2019-03-06T08:31:57.905Z,4.83
2019-03-06T08:33:07.699Z,5.19
2019-03-06T08:34:26.020Z,5.36
2019-03-06T08:35:36.015Z,5.67
2019-03-06T08:36:45.722Z,6.05
2019-03-06T08:37:55.700Z,6.13
2019-03-06T08:39:05.161Z,6.29
2019-03-06T08:40:15.127Z,6.65
2019-03-06T08:41:24.843Z,6.78
2019-03-06T08:42:35.110Z,6.89
2019-03-06T08:43:45.089Z,6.86
2019-03-06T08:44:55.066Z,6.78
2019-03-06T08:46:04.794Z,6.85
2019-03-06T08:47:14.764Z,6.65
2019-03-06T08:48:24.756Z,6.87
2019-03-06T08:49:34.726Z,6.89
2019-03-06T08:50:44.457Z,7.1
2019-03-06T08:51:54.442Z,7.36
2019-03-06T08:53:04.410Z,7.37
2019-03-06T08:54:14.124Z,7.5
2019-03-06T08:55:24.093Z,7.77
2019-03-06T08:56:34.072Z,8.05
2019-03-06T08:57:43.562Z,8.35
2019-03-06T08:58:53.299Z,8.57
2019-03-06T09:00:03.344Z,8.63
2019-03-06T09:01:13.109Z,8.71
2019-03-06T09:02:22.846Z,8.69
2019-03-06T09:03:32.896Z,8.74
2019-03-06T09:04:43.239Z,8.78
2019-03-06T09:05:53.764Z,8.87
2019-03-06T09:07:04.052Z,8.89
2019-03-06T09:08:14.021Z,9.16
2019-03-06T09:09:23.738Z,9.15
2019-03-06T09:10:33.739Z,9.36
2019-03-06T09:11:44.384Z,9.39
2019-03-06T09:12:54.376Z,9.47
2019-03-06T09:14:04.793Z,9.55
2019-03-06T09:15:14.591Z,9.72
2019-03-06T09:16:24.086Z,9.67
2019-03-06T09:17:34.070Z,9.56
2019-03-06T09:18:43.788Z,9.59
2019-03-06T09:19:53.269Z,9.67
2019-03-06T09:21:03.003Z,9.85
2019-03-06T09:22:13.074Z,9.67
2019-03-06T09:23:28.180Z,9.81
2019-03-06T09:24:38.273Z,9.91
2019-03-06T09:25:48.476Z,10.21
2019-03-06T09:26:59.626Z,10.23
2019-03-06T09:28:09.772Z,10.07
2019-03-06T09:29:19.536Z,10.2
2019-03-06T09:30:29.262Z,10.24
2019-03-06T09:31:39.461Z,10.21
2019-03-06T09:32:49.686Z,10.17
2019-03-06T09:34:00.176Z,10.07
2019-03-06T09:35:10.908Z,10.07
2019-03-06T09:36:21.542Z,9.9
2019-03-06T09:37:31.269Z,10
2019-03-06T09:38:41.272Z,10.1
2019-03-06T09:39:51.234Z,10.12
2019-03-06T09:41:00.995Z,10.15
2019-03-06T09:42:10.984Z,10.2
2019-03-06T09:43:20.964Z,10.33
2019-03-06T09:44:30.450Z,10.27
2019-03-06T09:45:40.467Z,10.36
2019-03-06T09:46:50.452Z,10.27
2019-03-06T09:48:00.172Z,10.23
2019-03-06T09:49:16.536Z,10.36
2019-03-06T09:50:26.330Z,10.45
2019-03-06T09:51:36.312Z,10.34
2019-03-06T09:52:46.019Z,10.46
2019-03-06T09:53:55.767Z,10.64
2019-03-06T09:55:05.772Z,11.01
2019-03-06T09:56:15.754Z,11.05
2019-03-06T09:57:25.532Z,11.13
2019-03-06T09:58:35.538Z,11.13
2019-03-06T09:59:45.535Z,11.19
2019-03-06T10:00:55.282Z,11.19
2019-03-06T10:02:11.659Z,11.01
2019-03-06T10:03:22.332Z,10.98
2019-03-06T10:04:32.711Z,11.16
2019-03-06T10:05:42.687Z,11.23
2019-03-06T10:06:52.670Z,11.08
2019-03-06T10:08:02.643Z,11.16
2019-03-06T10:09:12.609Z,11.15
2019-03-06T10:10:22.593Z,11.19
2019-03-06T10:11:32.577Z,11.13
2019-03-06T10:12:49.969Z,11.07
2019-03-06T10:13:59.710Z,10.97
2019-03-06T10:15:09.441Z,11.16
2019-03-06T10:16:19.311Z,11.58
2019-03-06T10:17:32.660Z,11.67
2019-03-06T10:18:42.738Z,12.02
2019-03-06T10:19:52.746Z,12.21
2019-03-06T10:21:02.262Z,12.51
2019-03-06T10:22:11.989Z,12.91
2019-03-06T10:23:21.735Z,13.19
2019-03-06T10:24:31.501Z,13.3
2019-03-06T10:25:41.323Z,13.19
2019-03-06T10:26:51.103Z,13.09
2019-03-06T10:28:11.140Z,12.93
2019-03-06T10:29:20.984Z,13.01
2019-03-06T10:30:30.813Z,12.75
2019-03-06T10:31:41.156Z,12.72
2019-03-06T10:32:51.209Z,12.48
2019-03-06T10:34:01.292Z,12.58
2019-03-06T10:35:11.386Z,12.8
2019-03-06T10:36:21.210Z,12.91
2019-03-06T10:37:31.338Z,13.19
2019-03-06T10:38:41.184Z,13.43
2019-03-06T10:39:51.759Z,13.4
2019-03-06T10:41:01.645Z,13.49
2019-03-06T10:42:11.592Z,13.11
2019-03-06T10:43:21.625Z,13.42
2019-03-06T10:44:34.835Z,13.37
2019-03-06T10:45:46.883Z,13.43
2019-03-06T10:46:56.958Z,13.33
2019-03-06T10:48:07.204Z,13.24
2019-03-06T10:49:17.303Z,13.33
2019-03-06T10:52:30.690Z,13.12
2019-03-06T10:53:47.214Z,13.23
2019-03-06T10:55:00.069Z,13.21
2019-03-06T10:56:10.259Z,13.43
2019-03-06T10:57:20.155Z,13.31
2019-03-06T10:58:30.292Z,13.47
2019-03-06T10:59:40.388Z,13.47
2019-03-06T11:00:50.563Z,13.5
2019-03-06T11:02:01.231Z,13.62
2019-03-06T11:03:11.853Z,13.79
2019-03-06T11:04:21.447Z,13.73
2019-03-06T11:05:31.833Z,13.33
2019-03-06T11:06:41.936Z,13.31
2019-03-06T11:07:52.051Z,13.27
2019-03-06T11:09:02.142Z,13.2
2019-03-06T11:10:12.281Z,13.28
2019-03-06T11:11:32.263Z,13.6
2019-03-06T11:12:42.412Z,13.57
2019-03-06T11:13:52.492Z,13.54
2019-03-06T11:15:10.994Z,13.33
2019-03-06T11:23:58.933Z,13.11
2019-03-06T11:25:08.730Z,13.11
2019-03-06T11:26:18.756Z,13.12
2019-03-06T11:27:28.829Z,13.24
2019-03-06T11:28:38.632Z,13.11
2019-03-06T11:29:48.175Z,13.3
2019-03-06T11:30:57.986Z,13.24
2019-03-06T11:32:08.214Z,12.95
2019-03-06T11:33:18.285Z,12.87
2019-03-06T11:34:28.521Z,12.88
2019-03-06T11:35:38.797Z,12.78
2019-03-06T11:36:48.986Z,12.98
2019-03-06T11:37:59.273Z,12.94
2019-03-06T11:39:10.100Z,13.11
2019-03-06T11:40:20.967Z,12.91
2019-03-06T11:41:31.633Z,12.88
2019-03-06T11:42:41.139Z,13.13
2019-03-06T11:43:51.525Z,13.21
2019-03-06T11:45:01.686Z,13.11
2019-03-06T11:46:11.487Z,13.24
2019-03-06T11:47:21.510Z,13.4
2019-03-06T11:48:31.296Z,13.46
2019-03-06T11:49:41.334Z,13.46
2019-03-06T11:50:51.092Z,13.24
2019-03-06T11:52:00.860Z,13.02
2019-03-06T11:53:10.894Z,13.02
2019-03-06T11:54:20.697Z,12.88
2019-03-06T11:55:30.755Z,12.87
2019-03-06T11:56:40.794Z,12.7
2019-03-06T11:57:50.608Z,12.72
2019-03-06T11:59:00.465Z,12.66
2019-03-06T12:00:10.487Z,12.73
2019-03-06T12:01:20.664Z,12.61
2019-03-06T12:02:30.473Z,12.8
2019-03-06T12:03:40.559Z,12.81
2019-03-06T12:04:50.383Z,12.84
2019-03-06T12:06:00.420Z,13.05
2019-03-06T12:07:10.458Z,13.21
2019-03-06T12:08:20.277Z,13.36
2019-03-06T12:09:30.378Z,13.21
2019-03-06T12:10:40.464Z,13.31
2019-03-06T12:11:50.266Z,13.4
2019-03-06T12:13:00.298Z,13.68
2019-03-06T12:14:10.317Z,14.03
2019-03-06T12:15:20.341Z,14.11
2019-03-06T12:16:30.382Z,14.19
2019-03-06T12:17:48.711Z,14.41
2019-03-06T12:18:58.513Z,14.61
2019-03-06T12:20:13.245Z,14.61
2019-03-06T12:21:23.063Z,14.86
2019-03-06T12:22:33.116Z,15
2019-03-06T12:23:42.937Z,14.82
2019-03-06T12:24:53.071Z,14.79
2019-03-06T12:26:02.853Z,14.77
2019-03-06T12:27:12.597Z,14.36
2019-03-06T12:28:22.608Z,14.3
2019-03-06T12:29:32.751Z,14.4
2019-03-06T12:30:42.521Z,14.59
2019-03-06T12:31:52.761Z,14.55
2019-03-06T12:33:02.915Z,14.59
2019-03-06T12:34:13.368Z,14.67
2019-03-06T12:35:23.938Z,14.7
2019-03-06T12:36:36.115Z,14.43
2019-03-06T12:37:51.742Z,14.41
2019-03-06T12:39:01.784Z,14.52
2019-03-06T12:40:17.780Z,14.79
2019-03-06T12:41:27.780Z,14.59
2019-03-06T12:42:37.548Z,14.79
2019-03-06T12:43:49.573Z,14.58
2019-03-06T12:44:59.608Z,14.61
2019-03-06T12:46:09.619Z,14.89
2019-03-06T12:47:28.123Z,15.02
2019-03-06T12:48:37.893Z,15.29
2019-03-06T12:49:47.632Z,15.36
2019-03-06T12:51:01.022Z,15.3
2019-03-06T12:52:12.115Z,15
2019-03-06T12:53:22.135Z,15.1
2019-03-06T12:54:32.156Z,15.17
2019-03-06T12:55:41.915Z,15.41
2019-03-06T12:56:51.668Z,15.52
2019-03-06T12:58:04.494Z,15.51
2019-03-06T12:59:15.003Z,15.62
2019-03-06T13:00:25.687Z,15.78
2019-03-06T13:01:36.483Z,15.67
2019-03-06T13:02:47.290Z,15.66
2019-03-06T13:03:57.248Z,15.84
2019-03-06T13:05:07.410Z,15.69
2019-03-06T13:06:26.611Z,15.81
2019-03-06T13:07:36.658Z,15.87
2019-03-06T13:08:56.385Z,16.24
2019-03-06T13:10:06.563Z,16.12
2019-03-06T13:11:16.359Z,16.24
2019-03-06T13:12:26.155Z,16.05
2019-03-06T13:13:40.286Z,15.85
2019-03-06T13:14:50.083Z,15.44
2019-03-06T13:15:59.973Z,15.65
2019-03-06T13:17:10.009Z,16.16
2019-03-06T13:18:20.096Z,16.4
2019-03-06T13:19:29.894Z,16.73
2019-03-06T13:20:39.927Z,16.74
2019-03-06T13:21:49.986Z,16.73
2019-03-06T13:23:00.043Z,16.86
2019-03-06T13:24:11.719Z,16.86
2019-03-06T13:25:21.486Z,16.66
2019-03-06T13:26:31.280Z,16.89
2019-03-06T13:27:41.336Z,16.8
2019-03-06T13:29:02.360Z,16.91
2019-03-06T13:30:12.878Z,16.49
2019-03-06T13:31:23.936Z,16.24
2019-03-06T13:32:34.653Z,16.39
2019-03-06T13:33:44.969Z,16.47
2019-03-06T13:34:57.278Z,16.26
2019-03-06T13:36:07.063Z,16.39
2019-03-06T13:37:17.449Z,16.43
2019-03-06T13:38:27.508Z,16.43
2019-03-06T13:39:37.286Z,16.49
2019-03-06T13:40:47.349Z,16.55
2019-03-06T13:41:57.390Z,16.79
2019-03-06T13:43:07.489Z,16.51
2019-03-06T13:44:19.001Z,16.47
2019-03-06T13:45:28.640Z,16.39
2019-03-06T13:46:38.674Z,16.49
2019-03-06T13:47:50.821Z,16.29
2019-03-06T13:49:01.006Z,16.1
2019-03-06T13:50:11.660Z,16.1
2019-03-06T13:51:21.562Z,16.08
2019-03-06T13:52:31.642Z,15.87
2019-03-06T13:53:41.429Z,15.76
2019-03-06T13:54:51.827Z,15.63
2019-03-06T13:56:01.638Z,15.54
2019-03-06T13:57:11.647Z,15.43
2019-03-06T13:58:21.454Z,15.32
2019-03-06T13:59:30.973Z,15.54
2019-03-06T14:00:41.004Z,15.39
2019-03-06T14:01:50.781Z,15.41
2019-03-06T14:03:00.850Z,15.44
2019-03-06T14:04:10.644Z,15.41
2019-03-06T14:05:20.680Z,15.37
2019-03-06T14:06:30.736Z,15.35
2019-03-06T14:07:40.764Z,15.41
2019-03-06T14:08:50.558Z,15.51
2019-03-06T14:10:00.600Z,15.43
2019-03-06T14:11:10.657Z,15.45
2019-03-06T14:12:20.720Z,15.11
2019-03-06T14:13:30.535Z,15.04
2019-03-06T14:14:40.592Z,15
2019-03-06T14:15:58.742Z,15.04
2019-03-06T14:17:08.764Z,14.78
2019-03-06T14:18:18.909Z,14.81
2019-03-06T14:19:30.068Z,14.63
2019-03-06T14:20:40.476Z,14.62
2019-03-06T14:21:51.312Z,14.62
2019-03-06T14:23:01.552Z,14.55
2019-03-06T14:24:12.255Z,14.43
2019-03-06T14:25:22.677Z,14.43
2019-03-06T14:26:32.914Z,14.59
2019-03-06T14:27:43.038Z,14.53
2019-03-06T14:28:52.822Z,14.45
2019-03-06T14:30:02.875Z,14.4
2019-03-06T14:31:13.017Z,14.3
2019-03-06T14:32:23.042Z,14.13
2019-03-06T14:33:32.844Z,14.11
2019-03-06T14:34:42.909Z,13.87
2019-03-06T14:35:52.688Z,14.03
2019-03-06T14:37:02.735Z,13.91
2019-03-06T14:38:12.552Z,13.76
2019-03-06T14:39:22.591Z,13.76
2019-03-06T14:40:32.674Z,13.64
2019-03-06T14:41:42.700Z,13.7
2019-03-06T14:42:53.268Z,13.73
2019-03-06T14:44:03.296Z,13.79
2019-03-06T14:45:13.330Z,13.61
2019-03-06T14:46:23.364Z,13.76
2019-03-06T14:47:33.122Z,13.75
2019-03-06T14:48:43.138Z,13.73
2019-03-06T14:49:52.973Z,13.89
2019-03-06T14:51:03.027Z,13.91
2019-03-06T14:52:12.822Z,13.87
2019-03-06T14:53:22.350Z,13.55
2019-03-06T14:54:32.396Z,13.61
2019-03-06T14:55:42.435Z,13.55
2019-03-06T14:56:52.458Z,13.47
2019-03-06T14:58:02.544Z,13.31
2019-03-06T14:59:12.574Z,13.31
2019-03-06T15:00:22.330Z,13.27
2019-03-06T15:01:32.341Z,13.24
2019-03-06T15:02:42.360Z,13.12
2019-03-06T15:03:51.913Z,13.11
2019-03-06T15:05:01.924Z,13.08
2019-03-06T15:06:12.688Z,13.05
2019-03-06T15:07:22.821Z,13.05
2019-03-06T15:08:32.844Z,12.93
2019-03-06T15:09:42.649Z,12.94
2019-03-06T15:10:52.676Z,12.9
2019-03-06T15:12:02.444Z,12.93
2019-03-06T15:13:12.463Z,12.93
2019-03-06T15:14:23.197Z,12.81
2019-03-06T15:15:41.390Z,12.84
2019-03-06T15:16:51.742Z,12.78
2019-03-06T15:18:10.266Z,12.76
2019-03-06T15:19:20.635Z,12.72
2019-03-06T15:20:30.421Z,12.73
2019-03-06T15:21:41.167Z,12.65
2019-03-06T15:22:51.201Z,12.62
2019-03-06T15:24:01.264Z,12.51
2019-03-06T15:25:11.320Z,12.55
2019-03-06T15:26:20.830Z,12.48
2019-03-06T15:27:30.603Z,12.5
2019-03-06T15:28:40.926Z,12.45
2019-03-06T15:29:50.461Z,12.51
2019-03-06T15:31:00.491Z,12.5
2019-03-06T15:32:10.582Z,12.47
2019-03-06T15:33:20.596Z,12.39
2019-03-06T15:34:30.622Z,12.35
2019-03-06T15:35:40.637Z,12.39